Time;durP1;ratioP1;P1;durP2;ratioP2;P2;SDS_P1;SDS_P2;PMS_P1;PMS_P2;Temp;Humidity;BMP_temperature;BMP_pressure;BME280_temperature;BME280_humidity;BME280_pressure;Samples;Min_cycle;Max_cycle;Signal;HPM_P1;HPM_P2
2022/10/01 00:03:33;;;;;;;10.52;6.75;;;;;;;9.70;100.00;100166.81;12837201;23;20020;-87
2022/10/01 00:08:35;;;;;;;9.80;7.65;;;;;;;9.42;100.00;100113.88;12822752;23;20015;-87
2022/10/01 00:13:37;;;;;;;9.52;8.13;;;;;;;9.37;100.00;100102.88;12857723;22;20004;-86
2022/10/01 00:18:38;;;;;;;10.35;8.82;;;;;;;10.25;100.00;100245.22;12804988;22;20011;-86
2022/10/01 00:23:39;;;;;;;14.82;11.10;;;;;;;9.41;100.00;100109.50;12833867;23;20024;-86
2022/10/01 00:28:40;;;;;;;14.25;11.23;;;;;;;9.36;100.00;100084.72;12845966;23;20005;-86
2022/10/01 00:33:41;;;;;;;15.63;11.80;;;;;;;9.69;100.00;100170.66;12816461;23;20000;-85
2022/10/01 00:38:42;;;;;;;12.95;11.13;;;;;;;10.24;100.00;100217.97;12856022;23;20023;-85
2022/10/01 00:43:45;;;;;;;18.25;12.63;;;;;;;8.94;100.00;100022.41;12832488;23;20086;-85
2022/10/01 00:49:16;;;;;;;21.25;14.88;;;;;;;9.52;100.00;100128.78;12819411;23;20000;-86
2022/10/01 00:54:20;;;;;;;17.88;13.77;;;;;;;9.08;100.00;100040.06;12857314;23;20026;-84
2022/10/01 00:59:21;;;;;;;21.13;15.55;;;;;;;9.67;100.00;100117.88;12831044;22;20019;-85
2022/10/01 01:04:21;;;;;;;20.33;14.57;;;;;;;8.35;100.00;99920.97;12830673;23;20018;-86
2022/10/01 01:09:30;;;;;;;22.00;15.40;;;;;;;9.12;100.00;100031.31;12828221;23;20000;-85
2022/10/01 01:14:44;;;;;;;22.60;14.50;;;;;;;8.08;100.00;99802.09;12855699;23;20500;-87
2022/10/01 01:20:06;;;;;;;20.02;14.35;;;;;;;8.52;100.00;99894.25;12844264;23;20176;-88
2022/10/01 01:25:17;;;;;;;19.23;14.35;;;;;;;10.00;100.00;100099.31;12857077;23;20095;-85
2022/10/01 01:30:18;;;;;;;21.90;14.73;;;;;;;8.84;100.00;99929.84;12858234;23;20004;-85
2022/10/01 01:35:42;;;;;;;21.70;14.77;;;;;;;9.39;100.00;99993.56;12854685;23;20008;-85
2022/10/01 01:40:43;;;;;;;20.90;16.20;;;;;;;8.92;100.00;99906.56;12851664;23;20024;-86
2022/10/01 01:45:44;;;;;;;19.95;15.02;;;;;;;8.58;100.00;99875.91;12851160;23;20004;-86
2022/10/01 01:51:12;;;;;;;19.08;15.13;;;;;;;8.74;100.00;99852.94;12878772;23;20012;-86
2022/10/01 01:56:16;;;;;;;20.85;15.00;;;;;;;8.11;100.00;99740.41;12869302;23;20520;-86
2022/10/01 02:01:34;;;;;;;20.63;14.80;;;;;;;9.54;100.00;99989.22;12848970;23;20042;-86
2022/10/01 02:06:57;;;;;;;22.85;15.90;;;;;;;9.92;100.00;99989.88;12874831;23;20019;-85
2022/10/01 02:12:23;;;;;;;19.42;15.65;;;;;;;9.90;100.00;99976.38;12889044;23;20005;-85
2022/10/01 02:17:28;;;;;;;21.25;14.82;;;;;;;9.09;100.00;99876.13;12900549;23;20331;-86
2022/10/01 02:22:42;;;;;;;19.60;15.40;;;;;;;8.87;100.00;99799.50;12836555;23;20020;-86
2022/10/01 02:27:50;;;;;;;24.65;16.98;;;;;;;9.23;100.00;99932.22;12874322;23;20378;-85
2022/10/01 02:32:53;;;;;;;22.95;16.52;;;;;;;8.56;100.00;99754.63;12874920;23;20035;-87
2022/10/01 02:37:55;;;;;;;25.80;17.35;;;;;;;9.23;100.00;99877.28;12827361;23;20458;-85
2022/10/01 02:42:58;;;;;;;24.92;17.00;;;;;;;8.80;100.00;99785.19;12849146;23;20040;-87
2022/10/01 02:48:03;;;;;;;24.60;16.33;;;;;;;8.31;100.00;99723.25;12828416;23;20062;-85
2022/10/01 02:53:06;;;;;;;21.13;16.20;;;;;;;8.59;100.00;99787.03;12817563;23;20389;-86
2022/10/01 02:58:06;;;;;;;21.20;14.43;;;;;;;8.98;100.00;99823.13;12832713;22;20004;-84
2022/10/01 03:03:07;;;;;;;17.83;14.13;;;;;;;7.94;100.00;99624.66;12855441;23;20418;-84
2022/10/01 03:08:08;;;;;;;18.35;14.23;;;;;;;8.34;100.00;99667.03;12832509;23;20008;-88
2022/10/01 03:13:08;;;;;;;24.10;16.40;;;;;;;8.78;100.00;99725.06;12830455;22;20076;-84
2022/10/01 03:18:09;;;;;;;24.95;17.73;;;;;;;9.19;100.00;99803.97;12854454;23;20000;-88
2022/10/01 03:23:10;;;;;;;25.75;18.02;;;;;;;9.00;100.00;99774.25;12883678;23;20000;-83
2022/10/01 03:28:11;;;;;;;22.70;16.55;;;;;;;9.00;100.00;99752.31;12834699;23;20008;-88
2022/10/01 03:33:11;;;;;;;22.75;16.52;;;;;;;9.84;100.00;99887.59;12831898;23;20008;-87
2022/10/01 03:38:12;;;;;;;19.45;14.90;;;;;;;8.83;100.00;99700.41;12828253;23;20422;-87
2022/10/01 03:43:13;;;;;;;17.73;13.10;;;;;;;8.78;100.00;99705.03;12815906;23;20074;-88
2022/10/01 03:48:13;;;;;;;16.75;12.55;;;;;;;9.15;100.00;99747.94;12833620;23;20374;-87
2022/10/01 03:53:14;;;;;;;13.88;11.20;;;;;;;8.80;100.00;99672.66;12831835;23;20084;-86
2022/10/01 03:58:16;;;;;;;13.93;10.60;;;;;;;8.25;100.00;99571.59;12879888;23;20008;-87
2022/10/01 04:03:17;;;;;;;11.75;9.20;;;;;;;9.57;100.00;99735.84;12830606;23;20016;-84
2022/10/01 04:08:18;;;;;;;12.13;8.90;;;;;;;8.23;100.00;99551.84;12832380;23;20000;-87
2022/10/01 04:13:18;;;;;;;9.50;8.00;;;;;;;9.35;100.00;99697.69;12836399;23;19996;-88
2022/10/01 04:18:20;;;;;;;10.38;8.10;;;;;;;9.28;100.00;99681.47;12817512;23;24438;-85
2022/10/01 04:23:21;;;;;;;11.05;8.18;;;;;;;9.45;100.00;99730.66;12858491;23;20012;-87
2022/10/01 04:28:22;;;;;;;9.02;7.65;;;;;;;9.70;100.00;99766.38;12831112;23;20446;-87
2022/10/01 04:33:23;;;;;;;9.55;7.03;;;;;;;9.21;100.00;99670.78;12828536;23;20008;-85
2022/10/01 04:38:23;;;;;;;6.47;5.35;;;;;;;9.34;100.00;99668.56;12831465;23;20066;-85
2022/10/01 04:43:24;;;;;;;6.10;5.13;;;;;;;8.82;100.00;99585.41;12825297;23;20024;-87
2022/10/01 04:48:24;;;;;;;6.43;5.15;;;;;;;9.03;100.00;99630.97;12813843;22;20038;-86
2022/10/01 04:53:25;;;;;;;9.65;5.45;;;;;;;9.02;100.00;99621.09;12830216;23;20032;-86
2022/10/01 04:58:26;;;;;;;6.80;5.57;;;;;;;10.22;100.00;99833.13;12838171;23;20012;-85
2022/10/01 05:03:27;;;;;;;7.80;6.13;;;;;;;9.06;100.00;99646.88;12826387;23;20027;-88
2022/10/01 05:08:28;;;;;;;8.15;5.82;;;;;;;9.06;100.00;99648.81;12876180;23;20075;-85
2022/10/01 05:13:28;;;;;;;7.32;5.68;;;;;;;10.26;100.00;99836.97;12834447;22;20092;-85
2022/10/01 05:18:29;;;;;;;8.05;5.90;;;;;;;9.16;100.00;99606.81;12820965;22;20453;-86
2022/10/01 05:23:30;;;;;;;6.55;5.35;;;;;;;9.90;100.00;99768.28;12847445;23;20385;-85
2022/10/01 05:28:31;;;;;;;7.70;5.65;;;;;;;9.16;100.00;99635.09;12850043;23;20011;-86
2022/10/01 05:33:33;;;;;;;6.78;4.95;;;;;;;9.23;100.00;99657.59;12830898;23;20004;-86
2022/10/01 05:38:36;;;;;;;7.35;5.13;;;;;;;9.02;100.00;99634.81;12827923;23;20067;-85
2022/10/01 05:43:36;;;;;;;6.63;5.90;;;;;;;9.66;100.00;99725.97;12833740;22;20013;-91
2022/10/01 05:48:37;;;;;;;8.35;6.63;;;;;;;9.52;100.00;99706.47;12806198;23;20011;-89
2022/10/01 05:53:38;;;;;;;7.50;6.32;;;;;;;9.40;100.00;99668.28;12826401;23;20028;-89
2022/10/01 05:58:38;;;;;;;7.03;6.00;;;;;;;8.85;100.00;99601.34;12806101;23;20004;-89
2022/10/01 06:03:41;;;;;;;9.52;6.93;;;;;;;10.20;100.00;99779.50;12822399;23;20016;-89
2022/10/01 06:08:45;;;;;;;10.43;7.20;;;;;;;8.93;100.00;99570.59;12836777;23;20040;-89
2022/10/01 06:13:46;;;;;;;11.48;7.82;;;;;;;9.89;100.00;99721.81;12849940;23;20036;-88
2022/10/01 06:18:47;;;;;;;9.55;8.55;;;;;;;9.19;100.00;99622.72;12846984;23;20008;-87
2022/10/01 06:23:49;;;;;;;10.13;8.75;;;;;;;10.28;100.00;99782.50;12825320;23;20016;-88
2022/10/01 06:28:50;;;;;;;11.90;9.57;;;;;;;9.96;100.00;99738.00;12827923;23;20082;-85
2022/10/01 06:33:50;;;;;;;11.00;9.27;;;;;;;10.08;100.00;99733.84;12838786;22;20065;-85
2022/10/01 06:38:51;;;;;;;11.88;9.85;;;;;;;11.01;100.00;99872.00;12828267;23;20008;-84
2022/10/01 06:43:51;;;;;;;12.15;10.40;;;;;;;10.56;100.00;99795.91;12828024;23;20016;-88
2022/10/01 06:48:52;;;;;;;14.82;11.23;;;;;;;10.63;100.00;99780.75;12893442;23;20095;-84
2022/10/01 06:53:52;;;;;;;16.38;12.48;;;;;;;10.20;100.00;99730.81;12850311;22;20079;-84
2022/10/01 06:58:53;;;;;;;15.95;12.48;;;;;;;10.45;100.00;99762.13;12828662;23;20040;-87
2022/10/01 07:03:54;;;;;;;16.88;14.00;;;;;;;10.69;100.00;99795.34;12879083;23;20020;-85
2022/10/01 07:08:55;;;;;;;17.60;13.02;;;;;;;10.19;100.00;99718.16;12827320;23;20074;-84
2022/10/01 07:13:56;;;;;;;18.95;14.35;;;;;;;10.50;100.00;99760.19;12828264;23;20481;-87
2022/10/01 07:18:56;;;;;;;22.58;13.60;;;;;;;10.49;100.00;99743.94;12829396;23;20000;-85
2022/10/01 07:23:57;;;;;;;19.90;13.70;;;;;;;11.52;100.00;99871.75;12827332;23;20039;-85
2022/10/01 07:28:57;;;;;;;17.23;13.52;;;;;;;11.47;100.00;99837.88;12827321;23;20008;-85
2022/10/01 07:33:58;;;;;;;19.45;12.25;;;;;;;11.17;100.00;99736.97;12852616;23;20032;-86
2022/10/01 07:39:00;;;;;;;16.50;12.90;;;;;;;11.56;100.00;99769.19;12827404;23;20037;-88
2022/10/01 07:44:02;;;;;;;15.38;10.52;;;;;;;12.19;100.00;99823.56;12828491;23;20099;-87
2022/10/01 07:49:02;;;;;;;10.25;9.05;;;;;;;11.78;100.00;99747.50;12828374;23;20323;-87
2022/10/01 07:54:04;;;;;;;11.93;7.47;;;;;;;12.29;100.00;99857.38;12851208;23;20016;-89
2022/10/01 07:59:04;;;;;;;10.77;7.15;;;;;;;12.21;100.00;99815.81;12828336;23;20070;-87
2022/10/01 08:05:16;;;;;;;9.85;6.15;;;;;;;11.43;100.00;99690.72;12901028;23;20016;-87
2022/10/01 08:09:25;;;;;;;11.13;4.97;;;;;;;11.73;100.00;99788.91;12858175;23;20011;-89
2022/10/01 08:14:27;;;;;;;7.90;5.45;;;;;;;11.79;100.00;99809.81;12849810;23;20004;-84
2022/10/01 08:19:28;;;;;;;10.27;6.20;;;;;;;12.20;100.00;99878.44;12851177;23;20079;-88
2022/10/01 08:24:29;;;;;;;8.82;5.53;;;;;;;11.79;100.00;99807.06;12826233;23;20039;-90
2022/10/01 08:29:31;;;;;;;10.70;5.88;;;;;;;12.49;100.00;99916.28;12849405;23;20087;-86
2022/10/01 08:34:32;;;;;;;10.43;6.75;;;;;;;12.04;100.00;99835.56;12810665;23;20016;-86
2022/10/01 08:39:32;;;;;;;13.43;6.28;;;;;;;12.41;100.00;99875.50;12814453;23;20005;-85
2022/10/01 08:44:41;;;;;;;15.32;6.80;;;;;;;12.43;100.00;99862.25;12823272;23;20012;-89
2022/10/01 08:49:45;;;;;;;8.90;3.75;;;;;;;11.69;100.00;99699.59;12825496;23;20000;-89
2022/10/01 08:55:00;;;;;;;10.77;3.35;;;;;;;12.91;100.00;99898.16;12848382;23;20016;-87
2022/10/01 09:00:06;;;;;;;10.57;2.88;;;;;;;13.10;100.00;99906.50;12824921;23;20015;-88
2022/10/01 09:05:26;;;;;;;6.70;2.10;;;;;;;13.22;100.00;99884.78;12794702;23;19996;-87
2022/10/01 09:10:41;;;;;;;6.78;2.22;;;;;;;13.51;100.00;99911.53;12807049;23;20007;-87
2022/10/01 09:15:57;;;;;;;15.23;2.00;;;;;;;13.73;100.00;99894.38;12858479;22;20435;-87
2022/10/01 09:20:58;;;;;;;8.65;1.95;;;;;;;13.84;100.00;99861.81;12851000;23;20020;-86
2022/10/01 09:25:58;;;;;;;14.80;2.35;;;;;;;13.91;100.00;99862.25;12837205;23;20004;-87
2022/10/01 09:31:00;;;;;;;13.80;2.05;;;;;;;15.29;100.00;100005.84;12849049;23;20425;-90
2022/10/01 09:36:14;;;;;;;9.60;1.75;;;;;;;14.91;100.00;99867.44;12849045;23;20012;-89
2022/10/01 09:41:14;;;;;;;10.25;1.85;;;;;;;15.38;100.00;99965.19;12813353;23;20158;-90
2022/10/01 09:46:16;;;;;;;10.68;2.08;;;;;;;15.33;100.00;99970.81;12812088;23;20451;-90
2022/10/01 09:51:18;;;;;;;13.90;2.75;;;;;;;15.43;100.00;99944.81;12822801;23;20012;-93
2022/10/01 09:56:47;;;;;;;10.80;2.85;;;;;;;14.83;100.00;99859.84;12822701;23;20316;-90
2022/10/01 10:01:50;;;;;;;13.38;2.45;;;;;;;14.77;100.00;99833.34;12821890;22;20024;-89
2022/10/01 10:06:52;;;;;;;11.45;3.08;;;;;;;15.19;100.00;99931.16;12836999;22;20431;-90
2022/10/01 10:11:55;;;;;;;9.13;1.50;;;;;;;14.77;100.00;99938.63;12847065;23;20443;-88
2022/10/01 10:16:56;;;;;;;8.60;1.75;;;;;;;14.53;100.00;99909.94;12808849;23;20000;-87
2022/10/01 10:21:59;;;;;;;7.72;1.20;;;;;;;15.43;100.00;100022.50;12818165;23;20016;-85
2022/10/01 10:27:01;;;;;;;4.15;1.02;;;;;;;15.93;100.00;100019.81;12824483;23;20075;-85
2022/10/01 10:32:03;;;;;;;2.88;0.77;;;;;;;15.00;100.00;99790.72;12823637;23;20434;-86
2022/10/01 10:37:14;;;;;;;8.90;1.55;;;;;;;15.92;100.00;99990.41;12847828;23;20011;-85
2022/10/01 10:42:15;;;;;;;8.88;1.23;;;;;;;16.00;100.00;100097.94;12851542;23;20042;-90
2022/10/01 10:47:17;;;;;;;9.45;1.73;;;;;;;13.98;100.00;99906.16;12848050;23;20032;-88
2022/10/01 10:52:35;;;;;;;14.52;1.67;;;;;;;12.89;100.00;99984.09;12805858;23;20327;-88
2022/10/01 10:57:36;;;;;;;4.13;0.63;;;;;;;11.69;100.00;100024.94;12791290;23;20015;-88
2022/10/01 11:02:38;;;;;;;4.45;0.70;;;;;;;10.66;100.00;99969.31;12822518;23;20016;-85
2022/10/01 11:07:39;;;;;;;5.38;0.80;;;;;;;10.94;100.00;100025.72;12848259;23;20008;-90
2022/10/01 11:12:55;;;;;;;5.57;0.70;;;;;;;12.70;100.00;100176.50;12853733;23;20083;-89
2022/10/01 11:18:20;;;;;;;3.00;0.75;;;;;;;11.06;100.00;99935.34;12850944;23;20004;-86
2022/10/01 11:23:48;;;;;;;5.00;0.80;;;;;;;12.81;100.00;100177.25;12860683;23;20124;-91
2022/10/01 11:29:21;;;;;;;6.00;1.10;;;;;;;11.62;100.00;99969.31;12863935;23;20335;-91
2022/10/01 11:34:43;;;;;;;4.63;0.90;;;;;;;13.25;100.00;100195.72;12857623;23;20004;-87
2022/10/01 11:39:44;;;;;;;4.45;0.88;;;;;;;12.20;100.00;99957.66;12886088;23;20442;-85
2022/10/01 11:45:20;;;;;;;5.32;1.13;;;;;;;12.10;100.00;99926.25;12850906;23;20020;-87
2022/10/01 11:50:24;;;;;;;3.88;1.10;;;;;;;13.07;100.00;100026.75;12860129;23;20020;-87
2022/10/01 12:00:59;;;;;;;3.53;0.70;;;;;;;14.40;100.00;100004.03;12881688;23;20030;-88
2022/10/01 12:06:00;;;;;;;5.80;0.98;;;;;;;14.81;100.00;99967.38;12838878;23;20004;-92
2022/10/01 12:11:23;;;;;;;9.60;1.42;;;;;;;16.59;100.00;100067.47;12839423;23;20322;-89
2022/10/01 12:16:32;;;;;;;6.07;0.95;;;;;;;17.25;100.00;100058.63;12826209;23;20032;-86
2022/10/01 12:21:38;;;;;;;2.60;0.70;;;;;;;16.93;100.00;99974.38;12848793;23;20023;-90
2022/10/01 12:26:42;;;;;;;5.15;0.80;;;;;;;18.02;100.00;100132.47;12827977;23;20005;-89
2022/10/01 12:31:51;;;;;;;12.38;2.85;;;;;;;17.05;100.00;100138.66;12849519;22;20016;-90
2022/10/01 12:37:23;;;;;;;9.68;1.25;;;;;;;17.46;100.00;100226.66;12851877;23;20011;-89
2022/10/01 12:42:48;;;;;;;12.93;1.63;;;;;;;16.49;100.00;100248.28;12849549;23;20016;-89
2022/10/01 12:48:24;;;;;;;11.48;1.77;;;;;;;14.62;100.00;100045.81;12899786;23;20020;-85
2022/10/01 12:53:31;;;;;;;10.85;1.85;;;;;;;14.58;100.00;100025.38;12861259;23;20106;-85
2022/10/01 12:58:35;;;;;;;6.32;1.25;;;;;;;15.78;100.00;100168.06;12850011;23;20008;-85
2022/10/01 13:03:54;;;;;;;9.00;2.20;;;;;;;17.97;100.00;100223.72;12874779;23;20024;-86
2022/10/01 13:09:01;;;;;;;10.20;1.83;;;;;;;17.03;100.00;100129.81;12874366;23;20012;-86
2022/10/01 13:14:03;;;;;;;13.80;1.55;;;;;;;16.75;100.00;100185.47;12849676;23;20011;-85
2022/10/01 13:19:13;;;;;;;10.30;1.50;;;;;;;16.69;100.00;100206.19;12849997;23;20446;-84
2022/10/01 13:24:34;;;;;;;10.88;1.73;;;;;;;18.00;100.00;100112.50;12825933;23;20059;-86
2022/10/01 13:29:40;;;;;;;7.80;1.40;;;;;;;18.99;100.00;100109.19;12829246;23;20000;-84
2022/10/01 13:34:41;;;;;;;4.07;1.15;;;;;;;17.51;100.00;100151.41;12855669;23;20310;-84
2022/10/01 13:39:45;;;;;;;3.83;1.08;;;;;;;16.39;100.00;100237.38;12856665;23;20004;-84
2022/10/01 13:44:59;;;;;;;6.80;1.20;;;;;;;15.66;100.00;100320.31;12825663;23;20036;-84
2022/10/01 13:50:04;;;;;;;10.13;1.45;;;;;;;14.84;100.00;100365.81;12828683;23;20079;-85
2022/10/01 13:55:04;;;;;;;6.78;1.17;;;;;;;13.33;100.00;100247.66;12826911;23;20020;-84
2022/10/01 14:00:11;;;;;;;8.88;1.35;;;;;;;14.54;100.00;100215.44;12799375;23;20031;-84
2022/10/01 14:05:33;;;;;;;6.55;1.48;;;;;;;15.60;100.00;100405.56;12901740;23;20019;-85
2022/10/01 14:15:57;;;;;;;6.65;1.10;;;;;;;12.85;100.00;100206.78;12849596;23;20079;-86
2022/10/01 14:15:58;;;;;;;10.15;2.03;;;;;;;12.17;100.00;100201.88;12858006;23;20414;-86
2022/10/01 14:21:17;;;;;;;6.85;1.17;;;;;;;13.32;100.00;100420.19;12849037;23;20026;-86
2022/10/01 14:26:26;;;;;;;5.90;0.90;;;;;;;11.73;100.00;100180.44;12873792;23;20009;-86
2022/10/01 14:31:45;;;;;;;6.43;1.02;;;;;;;13.28;100.00;100441.19;12824560;23;20334;-87
2022/10/01 14:36:50;;;;;;;6.38;1.20;;;;;;;11.81;100.00;100297.66;12874380;23;20378;-85
2022/10/01 14:41:51;;;;;;;6.47;1.17;;;;;;;11.93;100.00;100328.56;12824361;23;20082;-85
2022/10/01 14:46:53;;;;;;;6.05;1.40;;;;;;;10.77;100.00;100190.38;12826461;23;20004;-87
2022/10/01 14:51:58;;;;;;;6.10;1.40;;;;;;;12.69;100.00;100415.97;12827631;23;20343;-88
2022/10/01 14:56:59;;;;;;;7.40;1.45;;;;;;;12.80;100.00;100374.50;12852522;23;20388;-87
2022/10/01 15:02:01;;;;;;;5.63;1.08;;;;;;;11.63;100.00;100241.13;12851983;23;20013;-87
2022/10/01 15:07:08;;;;;;;6.20;1.58;;;;;;;12.38;100.00;100370.16;12877560;23;20031;-89
2022/10/01 15:12:08;;;;;;;;;;;;;;;13.57;100.00;100487.53;12826754;23;20024;-88
2022/10/01 15:17:15;;;;;;;10.57;1.88;;;;;;;13.27;100.00;100428.47;12845572;22;19910;-89
2022/10/01 15:22:16;;;;;;;5.72;1.27;;;;;;;13.35;100.00;100447.25;12827102;23;20044;-89
2022/10/01 15:27:18;;;;;;;5.28;1.30;;;;;;;13.37;100.00;100444.22;12827009;23;20008;-89
2022/10/01 15:32:21;;;;;;;7.82;1.98;;;;;;;12.46;100.00;100342.84;12811325;22;20011;-89
2022/10/01 15:37:26;;;;;;;10.02;1.98;;;;;;;12.39;100.00;100311.09;12851238;23;20020;-89
2022/10/01 15:42:31;;;;;;;10.07;1.60;;;;;;;12.49;100.00;100410.47;12826278;23;20016;-88
2022/10/01 15:47:36;;;;;;;11.18;1.70;;;;;;;12.77;100.00;100453.22;12811526;23;20338;-87
2022/10/01 15:52:53;;;;;;;10.98;1.38;;;;;;;11.47;100.00;100326.59;12814889;23;20342;-89
2022/10/01 15:58:02;;;;;;;7.22;1.27;;;;;;;11.32;100.00;100338.41;12849940;23;20008;-87
2022/10/01 16:03:03;;;;;;;9.32;2.38;;;;;;;11.51;100.00;100358.03;12850001;23;20020;-88
2022/10/01 16:08:03;;;;;;;11.10;1.83;;;;;;;12.21;100.00;100505.72;12826697;23;20004;-89
2022/10/01 16:13:28;;;;;;;8.05;2.30;;;;;;;13.03;100.00;100567.28;12803760;22;20066;-88
2022/10/01 16:18:31;;;;;;;9.48;1.70;;;;;;;11.26;100.00;100298.16;12869181;23;20054;-88
2022/10/01 16:23:42;;;;;;;12.32;1.70;;;;;;;12.24;100.00;100428.72;12787084;23;20027;-88
2022/10/01 16:28:43;;;;;;;7.05;1.52;;;;;;;12.89;100.00;100560.66;12803151;22;20027;-88
2022/10/01 16:33:45;;;;;;;85.68;42.67;;;;;;;11.78;100.00;100403.00;12795204;23;20063;-88
2022/10/01 16:38:46;;;;;;;9.30;1.95;;;;;;;11.27;100.00;100371.47;12849293;23;20028;-89
2022/10/01 16:43:51;;;;;;;9.88;2.65;;;;;;;12.09;100.00;100547.34;12824491;23;20350;-88
2022/10/01 16:48:54;;;;;;;16.13;2.10;;;;;;;12.49;100.00;100601.00;12799375;23;19997;-88
2022/10/01 16:53:55;;;;;;;12.48;2.45;;;;;;;11.07;100.00;100409.97;12797536;23;20024;-89
2022/10/01 16:58:56;;;;;;;16.13;3.58;;;;;;;10.94;100.00;100427.81;12831925;23;20005;-88
2022/10/01 17:03:56;;;;;;;14.35;2.88;;;;;;;11.17;100.00;100448.59;12848292;22;20020;-87
2022/10/01 17:08:58;;;;;;;14.63;2.53;;;;;;;11.88;100.00;100635.56;12809943;23;20209;-89
2022/10/01 17:14:01;;;;;;;17.15;3.33;;;;;;;10.67;100.00;100434.28;12795047;23;20011;-87
2022/10/01 17:19:02;;;;;;;20.55;2.67;;;;;;;10.63;100.00;100455.16;12827839;23;20004;-88
2022/10/01 17:24:02;;;;;;;15.60;2.70;;;;;;;11.03;100.00;100547.41;12825877;23;20016;-86
2022/10/01 17:29:05;;;;;;;16.52;2.90;;;;;;;10.55;100.00;100469.44;12811010;23;20001;-90
2022/10/01 17:34:06;;;;;;;18.65;3.13;;;;;;;11.28;100.00;100598.25;12826470;23;20083;-85
2022/10/01 17:39:06;;;;;;;20.70;3.08;;;;;;;10.88;100.00;100522.53;12850324;23;20083;-89
2022/10/01 17:44:07;;;;;;;16.23;3.25;;;;;;;10.96;100.00;100585.38;12818669;23;20023;-87
2022/10/01 17:49:08;;;;;;;22.85;3.67;;;;;;;10.45;100.00;100496.88;12824671;23;20039;-87
2022/10/01 17:54:08;;;;;;;16.38;2.90;;;;;;;10.18;100.00;100492.19;12846674;23;20027;-86
2022/10/01 17:59:09;;;;;;;18.35;4.00;;;;;;;10.81;100.00;100599.00;12821297;23;20019;-87
2022/10/01 18:04:11;;;;;;;23.17;4.32;;;;;;;10.28;100.00;100552.81;12809919;22;20346;-89
2022/10/01 18:09:12;;;;;;;13.25;2.42;;;;;;;11.56;100.00;100784.53;12850645;23;20005;-89
2022/10/01 18:14:13;;;;;;;23.27;3.78;;;;;;;11.39;100.00;100781.94;12827185;23;20331;-87
2022/10/01 18:19:13;;;;;;;23.95;3.42;;;;;;;10.66;100.00;100693.31;12829314;23;20007;-87
2022/10/01 18:24:14;;;;;;;23.50;5.10;;;;;;;10.24;100.00;100630.66;12818351;23;20350;-85
2022/10/01 18:29:26;;;;;;;25.75;3.42;;;;;;;10.94;100.00;100713.44;12827758;23;20008;-85
2022/10/01 18:34:35;;;;;;;24.70;3.35;;;;;;;10.58;100.00;100746.91;12772777;22;20330;-89
2022/10/01 18:39:52;;;;;;;21.38;5.57;;;;;;;10.22;100.00;100641.91;12828846;23;20438;-89
2022/10/01 18:44:57;;;;;;;18.02;2.65;;;;;;;9.55;100.00;100587.16;12826212;23;20451;-89
2022/10/01 18:50:20;;;;;;;19.80;3.50;;;;;;;10.72;100.00;100776.81;12811012;22;20514;-86
2022/10/01 18:55:30;;;;;;;13.75;2.38;;;;;;;9.72;100.00;100642.13;12852539;23;20023;-89
2022/10/01 19:00:59;;;;;;;16.08;2.47;;;;;;;11.05;100.00;100823.47;12833864;23;20012;-86
2022/10/01 19:06:18;;;;;;;11.23;2.00;;;;;;;10.66;100.00;100751.13;12794066;23;20434;-86
2022/10/01 19:11:40;;;;;;;12.57;2.45;;;;;;;10.20;100.00;100687.28;12842179;22;20075;-90
2022/10/01 19:16:55;;;;;;;13.38;4.00;;;;;;;10.09;100.00;100680.81;12851632;23;20016;-85
2022/10/01 19:21:57;;;;;;;16.90;2.60;;;;;;;10.36;100.00;100743.38;12796598;23;20023;-85
2022/10/01 19:27:32;;;;;;;15.25;1.90;;;;;;;9.61;100.00;100679.59;12832779;22;20079;-86
2022/10/01 19:33:00;;;;;;;10.75;2.30;;;;;;;9.25;100.00;100646.09;12835876;23;20012;-85
2022/10/01 19:38:02;;;;;;;;;;;;;;;10.64;100.00;100864.28;12830006;23;20303;-84
2022/10/01 19:43:15;;;;;;;20.05;4.03;;;;;;;8.82;100.00;100604.50;12932585;22;19923;-89
2022/10/01 19:49:22;;;;;;;10.52;2.13;;;;;;;10.52;100.00;100871.81;12811948;23;20602;-90
2022/10/01 19:54:31;;;;;;;18.10;3.55;;;;;;;9.74;100.00;100791.16;12677065;23;20458;-85
2022/10/01 19:59:32;;;;;;;14.50;2.85;;;;;;;9.31;100.00;100730.25;12818792;23;20016;-90
2022/10/01 20:04:38;;;;;;;17.90;2.65;;;;;;;9.97;100.00;100836.88;12815022;22;20012;-86
2022/10/01 20:09:44;;;;;;;17.02;3.33;;;;;;;9.27;100.00;100709.88;12814134;23;20008;-90
2022/10/01 20:15:11;;;;;;;23.27;4.18;;;;;;;10.43;100.00;100901.69;12793319;23;20013;-86
2022/10/01 20:20:38;;;;;;;13.05;3.08;;;;;;;8.52;100.00;100651.47;12796506;23;20024;-89
2022/10/01 20:26:04;;;;;;;18.63;3.20;;;;;;;10.32;100.00;100915.56;12865075;23;20510;-90
2022/10/01 20:31:17;;;;;;;11.70;2.83;;;;;;;8.84;100.00;100703.09;12881983;23;20000;-89
2022/10/01 20:36:26;;;;;;;23.48;3.00;;;;;;;10.30;100.00;100952.41;12828140;23;20028;-89
2022/10/01 20:41:28;;;;;;;11.75;2.75;;;;;;;9.06;100.00;100763.63;12851740;23;20016;-86
2022/10/01 20:46:45;;;;;;;15.75;4.00;;;;;;;8.98;100.00;100723.66;12852552;23;20038;-86
2022/10/01 20:51:55;;;;;;;;;;;;;;;10.17;100.00;100929.88;12854683;23;20004;-86
2022/10/01 20:57:03;;;;;;;10.27;1.85;;;;;;;9.79;100.00;100907.53;12877577;23;19916;-90
2022/10/01 21:02:18;;;;;;;10.50;2.88;;;;;;;8.56;100.00;100729.47;12829310;23;20077;-86
2022/10/01 21:07:27;;;;;;;7.93;1.98;;;;;;;9.98;100.00;100932.84;12854507;23;20016;-84
2022/10/01 21:12:38;;;;;;;14.65;3.00;;;;;;;9.32;100.00;100854.72;12873546;23;20362;-85
2022/10/01 21:17:52;;;;;;;18.83;4.00;;;;;;;8.64;100.00;100748.31;12810851;23;20023;-85
2022/10/01 21:22:52;;;;;;;14.32;3.22;;;;;;;10.00;100.00;100913.38;12828479;23;20350;-89
2022/10/01 21:28:31;;;;;;;12.90;2.42;;;;;;;9.43;100.00;100805.22;12882783;23;20012;-86
2022/10/01 21:33:33;;;;;;;14.25;3.05;;;;;;;10.08;100.00;100932.22;12851321;23;20012;-87
2022/10/01 21:38:47;;;;;;;10.93;3.10;;;;;;;10.40;100.00;101005.97;12806477;23;20008;-89
2022/10/01 21:44:14;;;;;;;12.00;2.63;;;;;;;10.26;100.00;100972.41;12803264;23;20046;-89
2022/10/01 21:49:27;;;;;;;15.93;2.53;;;;;;;9.19;100.00;100873.16;12853595;23;20018;-88
2022/10/01 21:54:37;;;;;;;13.07;2.70;;;;;;;10.09;100.00;100986.16;12814430;23;20031;-87
2022/10/01 21:59:40;;;;;;;14.50;3.20;;;;;;;10.22;100.00;100994.06;12856706;23;20008;-89
2022/10/01 22:04:47;;;;;;;12.10;3.38;;;;;;;8.06;100.00;100653.28;12853394;23;20046;-88
2022/10/01 22:10:12;;;;;;;9.18;2.20;;;;;;;10.24;100.00;101041.44;12790285;23;20000;-89
2022/10/01 22:15:20;;;;;;;17.08;2.95;;;;;;;10.27;100.00;101021.69;12798694;23;20089;-87
2022/10/01 22:20:25;;;;;;;11.88;2.40;;;;;;;9.00;100.00;100778.34;12811345;23;20312;-87
2022/10/01 22:25:26;;;;;;;14.95;2.88;;;;;;;9.97;100.00;101001.91;12831694;23;20024;-87
2022/10/01 22:30:27;;;;;;;13.20;3.03;;;;;;;8.53;100.00;100806.78;12786754;23;20039;-90
2022/10/01 22:35:50;;;;;;;19.02;3.50;;;;;;;9.16;100.00;100859.13;12806830;23;20019;-91
2022/10/01 22:40:59;;;;;;;11.00;2.08;;;;;;;8.81;100.00;100796.94;12769824;23;20092;-89
2022/10/01 22:46:18;;;;;;;11.88;2.67;;;;;;;10.78;100.00;101062.19;12805814;23;20009;-86
2022/10/01 22:51:22;;;;;;;15.63;2.13;;;;;;;10.73;100.00;101037.31;12845032;23;20038;-87
2022/10/01 22:56:28;;;;;;;11.55;2.08;;;;;;;9.98;100.00;100932.84;12864830;23;20016;-88
2022/10/01 23:01:39;;;;;;;8.15;1.95;;;;;;;10.53;100.00;101048.84;12820455;23;20328;-86
2022/10/01 23:06:44;;;;;;;5.38;2.28;;;;;;;8.47;100.00;100769.34;12858599;23;20062;-90
2022/10/01 23:12:07;;;;;;;15.38;2.78;;;;;;;10.22;100.00;101049.09;12834189;23;20020;-90
2022/10/01 23:17:41;;;;;;;13.18;2.78;;;;;;;10.09;100.00;101049.44;12834544;23;20100;-87
2022/10/01 23:23:13;;;;;;;9.63;2.38;;;;;;;9.99;100.00;101049.25;12821070;23;20027;-87